Time,TemperatureF,DewpointF,PressureIn,WindDirection,WindDirectionDegrees,WindSpeedMPH,WindSpeedGustMPH,Humidity,HourlyPrecipIn,Conditions,Clouds,dailyrainin,SoftwareType,DateUTC
2013-04-06 00:00:00,46.4,44.8,30.00,NW,318,0.0,0.0,94,0.00,,,0.00,VWS V14.01,2013-04-06 04:00:00,
2013-04-06 00:14:00,46.3,45.0,30.00,NW,319,0.0,0.0,95,0.00,,,0.00,VWS V14.01,2013-04-06 04:14:00,
2013-04-06 00:15:00,46.3,45.0,30.00,NW,319,0.0,0.0,95,0.00,,CLR,0.00,VWS V14.01,2013-04-06 04:15:00,
2013-04-06 00:19:00,46.3,45.0,30.00,NW,319,0.0,0.0,95,0.00,,,0.00,VWS V14.01,2013-04-06 04:19:00,
2013-04-06 00:29:00,46.2,44.8,30.00,NW,319,0.0,0.0,95,0.00,,,0.00,VWS V14.01,2013-04-06 04:29:00,
2013-04-06 00:30:00,46.2,44.8,30.00,NW,319,0.0,0.0,95,0.00,,SCT070,0.00,VWS V14.01,2013-04-06 04:30:00,
2013-04-06 00:38:00,46.0,44.7,30.00,NW,318,0.0,0.0,95,0.00,,,0.00,VWS V14.01,2013-04-06 04:38:00,
2013-04-06 00:43:00,46.0,44.7,30.00,NW,319,0.0,0.0,95,0.00,,,0.00,VWS V14.01,2013-04-06 04:43:00,
2013-04-06 00:45:00,45.9,44.5,30.00,NW,319,0.0,0.0,95,0.00,,CLR,0.00,VWS V14.01,2013-04-06 04:45:00,
2013-04-06 00:52:00,45.9,44.5,30.00,NW,319,0.0,0.0,95,0.00,,,0.00,VWS V14.01,2013-04-06 04:52:00,
2013-04-06 01:00:00,45.7,44.3,30.01,NW,319,0.0,0.0,95,0.00,,,0.00,VWS V14.01,2013-04-06 05:00:00,
2013-04-06 01:06:00,45.6,44.2,30.01,NW,319,0.0,0.0,95,0.00,,,0.00,VWS V14.01,2013-04-06 05:06:00,
2013-04-06 01:15:00,45.3,44.0,30.01,NW,318,0.0,0.0,95,0.00,,,0.00,VWS V14.01,2013-04-06 05:15:00,
2013-04-06 01:21:00,45.1,43.8,30.01,NW,319,0.0,0.0,95,0.00,,,0.00,VWS V14.01,2013-04-06 05:21:00,
2013-04-06 01:30:00,45.0,43.7,30.01,NW,318,0.0,0.0,95,0.00,,,0.00,VWS V14.01,2013-04-06 05:30:00,
2013-04-06 01:39:00,44.7,43.4,30.01,NW,319,0.0,0.0,95,0.00,,,0.00,VWS V14.01,2013-04-06 05:39:00,
2013-04-06 01:45:00,44.6,43.3,30.02,NW,319,0.0,0.0,95,0.00,,,0.00,VWS V14.01,2013-04-06 05:45:00,
2013-04-06 02:00:00,44.2,42.9,30.02,NW,319,0.0,0.0,95,0.00,,,0.00,VWS V14.01,2013-04-06 06:00:00,
2013-04-06 02:08:00,44.0,42.7,30.01,NW,319,0.0,0.0,95,0.00,,CLR,0.00,VWS V14.01,2013-04-06 06:08:00,
2013-04-06 02:15:00,43.9,42.6,30.01,NW,319,0.0,0.0,95,0.00,,CLR,0.00,VWS V14.01,2013-04-06 06:15:00,
2013-04-06 02:22:00,43.8,42.5,30.02,NW,318,0.0,0.0,95,0.00,,CLR,0.00,VWS V14.01,2013-04-06 06:22:00,
2013-04-06 02:30:00,43.6,42.3,30.02,NW,318,0.0,0.0,95,0.00,,CLR,0.00,VWS V14.01,2013-04-06 06:30:00,
2013-04-06 02:41:00,43.6,42.3,30.02,NW,318,0.0,0.0,95,0.00,,CLR,0.00,VWS V14.01,2013-04-06 06:41:00,
2013-04-06 02:45:00,43.6,42.3,30.02,NW,318,0.0,0.0,95,0.00,,CLR,0.00,VWS V14.01,2013-04-06 06:45:00,
2013-04-06 02:50:00,43.5,42.2,30.02,NW,319,0.0,0.0,95,0.00,,CLR,0.00,VWS V14.01,2013-04-06 06:50:00,
2013-04-06 03:00:00,43.3,42.0,30.02,NW,319,0.0,0.0,95,0.00,,CLR,0.00,VWS V14.01,2013-04-06 07:00:00,
2013-04-06 03:09:00,43.2,41.9,30.02,NW,319,0.0,0.0,95,0.00,,CLR,0.00,VWS V14.01,2013-04-06 07:09:00,
2013-04-06 03:15:00,43.1,41.8,30.02,NW,319,0.0,0.0,95,0.00,,CLR,0.00,VWS V14.01,2013-04-06 07:15:00,
2013-04-06 03:23:00,42.8,41.5,30.02,NW,318,0.0,0.0,95,0.00,,CLR,0.00,VWS V14.01,2013-04-06 07:23:00,
2013-04-06 03:30:00,42.7,41.4,30.02,NW,319,0.0,0.0,95,0.00,,CLR,0.00,VWS V14.01,2013-04-06 07:30:00,
2013-04-06 03:37:00,42.7,41.4,30.02,NW,319,0.0,0.0,95,0.00,,CLR,0.00,VWS V14.01,2013-04-06 07:37:00,
2013-04-06 03:45:00,42.6,41.5,30.03,NW,319,0.0,0.0,96,0.00,,CLR,0.00,VWS V14.01,2013-04-06 07:45:00,
2013-04-06 03:51:00,42.5,41.4,30.03,NW,319,0.0,0.0,96,0.00,,CLR,0.00,VWS V14.01,2013-04-06 07:51:00,
2013-04-06 04:00:00,42.5,41.4,30.03,NW,318,0.0,0.0,96,0.00,,CLR,0.00,VWS V14.01,2013-04-06 08:00:00,
2013-04-06 04:11:00,42.5,41.4,30.03,NW,319,0.0,0.0,96,0.00,,CLR,0.00,VWS V14.01,2013-04-06 08:11:00,
2013-04-06 04:15:00,42.4,42.4,30.03,NW,319,0.0,0.0,100,0.00,,CLR,0.00,VWS V14.01,2013-04-06 08:15:00,
2013-04-06 04:20:00,42.4,42.4,30.04,NW,319,0.0,0.0,100,0.00,,CLR,0.00,VWS V14.01,2013-04-06 08:20:00,
2013-04-06 04:29:00,42.6,41.5,30.04,NW,319,0.0,0.0,96,0.00,,CLR,0.00,VWS V14.01,2013-04-06 08:29:00,
2013-04-06 04:30:00,42.5,41.4,30.04,NW,319,0.0,0.0,96,0.00,,CLR,0.00,VWS V14.01,2013-04-06 08:30:00,
2013-04-06 04:39:00,42.6,41.5,30.04,NW,318,0.0,0.0,96,0.00,,CLR,0.00,VWS V14.01,2013-04-06 08:39:00,
2013-04-06 04:45:00,42.5,41.4,30.04,NW,319,0.0,0.0,96,0.00,,CLR,0.00,VWS V14.01,2013-04-06 08:45:00,
2013-04-06 04:53:00,42.5,41.4,30.04,NW,318,0.0,0.0,96,0.00,,CLR,0.00,VWS V14.01,2013-04-06 08:53:00,
2013-04-06 05:00:00,42.4,41.3,30.04,NW,319,0.0,0.0,96,0.00,,CLR,0.00,VWS V14.01,2013-04-06 09:00:00,
2013-04-06 05:07:00,42.3,41.2,30.04,NW,319,0.0,0.0,96,0.00,,CLR,0.00,VWS V14.01,2013-04-06 09:07:00,
2013-04-06 05:15:00,42.0,40.9,30.04,NW,318,0.0,0.0,96,0.00,,CLR,0.00,VWS V14.01,2013-04-06 09:15:00,
2013-04-06 05:21:00,41.8,40.8,30.05,NW,319,0.0,0.0,96,0.00,,CLR,0.00,VWS V14.01,2013-04-06 09:21:00,
2013-04-06 05:30:00,41.8,40.8,30.05,NW,318,0.0,0.0,96,0.00,,CLR,0.00,VWS V14.01,2013-04-06 09:30:00,
2013-04-06 05:35:00,41.7,40.7,30.05,NW,319,0.0,0.0,96,0.00,,CLR,0.00,VWS V14.01,2013-04-06 09:35:00,
2013-04-06 05:45:00,41.5,40.5,30.06,NW,318,0.0,0.0,96,0.00,,CLR,0.00,VWS V14.01,2013-04-06 09:45:00,
2013-04-06 05:59:00,41.2,40.2,30.06,NW,319,0.0,0.0,96,0.00,,CLR,0.00,VWS V14.01,2013-04-06 09:59:00,
2013-04-06 06:00:00,41.3,40.2,30.06,NW,319,0.0,0.0,96,0.00,,CLR,0.00,VWS V14.01,2013-04-06 10:00:00,
2013-04-06 06:08:00,41.3,40.2,30.07,NW,319,0.0,0.0,96,0.00,,CLR,0.00,VWS V14.01,2013-04-06 10:08:00,
2013-04-06 06:15:00,41.3,40.2,30.07,NW,319,0.0,0.0,96,0.00,,CLR,0.00,VWS V14.01,2013-04-06 10:15:00,
2013-04-06 06:23:00,41.1,40.0,30.07,NW,319,0.0,0.0,96,0.00,,CLR,0.00,VWS V14.01,2013-04-06 10:23:00,
2013-04-06 06:30:00,41.1,40.0,30.07,NW,318,0.0,0.0,96,0.00,,CLR,0.00,VWS V14.01,2013-04-06 10:30:00,
2013-04-06 06:37:00,41.0,40.0,30.07,NW,319,0.0,0.0,96,0.00,,CLR,0.00,VWS V14.01,2013-04-06 10:37:00,
2013-04-06 06:45:00,40.9,39.8,30.07,NW,318,0.0,0.0,96,0.00,,CLR,0.00,VWS V14.01,2013-04-06 10:45:00,
2013-04-06 06:51:00,40.7,39.7,30.08,NW,319,0.0,0.0,96,0.00,,CLR,0.00,VWS V14.01,2013-04-06 10:51:00,
2013-04-06 07:00:00,40.5,39.5,30.08,NW,319,0.0,0.0,96,0.00,,CLR,0.00,VWS V14.01,2013-04-06 11:00:00,
2013-04-06 07:05:00,40.3,39.2,30.08,NW,319,0.0,0.0,96,0.00,,CLR,0.00,VWS V14.01,2013-04-06 11:05:00,
2013-04-06 07:15:00,40.2,39.2,30.08,NW,319,0.0,0.0,96,0.00,,CLR,0.00,VWS V14.01,2013-04-06 11:15:00,
2013-04-06 07:24:00,40.3,39.2,30.09,NW,319,0.0,0.0,96,0.00,,CLR,0.00,VWS V14.01,2013-04-06 11:24:00,
2013-04-06 07:30:00,40.5,39.5,30.09,NW,319,0.0,0.0,96,0.00,,CLR,0.00,VWS V14.01,2013-04-06 11:30:00,
2013-04-06 07:34:00,40.7,39.7,30.10,NW,319,0.0,0.0,96,0.00,,CLR,0.00,VWS V14.01,2013-04-06 11:34:00,
2013-04-06 07:43:00,41.6,40.5,30.10,NW,318,0.0,1.0,96,0.00,,CLR,0.00,VWS V14.01,2013-04-06 11:43:00,
2013-04-06 07:45:00,41.7,40.7,30.10,NW,319,0.0,1.0,96,0.00,,CLR,0.00,VWS V14.01,2013-04-06 11:45:00,
2013-04-06 07:53:00,42.3,41.5,30.10,NW,319,0.0,0.0,97,0.00,,CLR,0.00,VWS V14.01,2013-04-06 11:53:00,
2013-04-06 07:57:00,42.5,41.4,30.10,NW,318,0.0,0.0,96,0.00,,CLR,0.00,VWS V14.01,2013-04-06 11:57:00,
2013-04-06 08:00:00,42.7,41.6,30.11,NW,319,0.0,0.0,96,0.00,,CLR,0.00,VWS V14.01,2013-04-06 12:00:00,
2013-04-06 08:07:00,43.3,42.5,30.11,NW,318,0.0,1.0,97,0.00,,CLR,0.00,VWS V14.01,2013-04-06 12:07:00,
2013-04-06 08:15:00,44.5,43.7,30.11,NW,319,0.0,1.0,97,0.00,,CLR,0.00,VWS V14.01,2013-04-06 12:15:00,
2013-04-06 08:21:00,45.0,44.2,30.11,NW,319,0.0,0.0,97,0.00,,CLR,0.00,VWS V14.01,2013-04-06 12:21:00,
2013-04-06 08:30:00,45.9,45.1,30.12,NW,319,0.0,1.0,97,0.00,,CLR,0.00,VWS V14.01,2013-04-06 12:30:00,
2013-04-06 08:35:00,46.4,45.6,30.12,NW,319,0.0,1.0,97,0.00,,CLR,0.00,VWS V14.01,2013-04-06 12:35:00,
2013-04-06 08:45:00,47.2,46.4,30.12,NW,319,0.0,1.0,97,0.00,,CLR,0.00,VWS V14.01,2013-04-06 12:45:00,
2013-04-06 08:54:00,47.8,47.0,30.13,NW,319,1.0,1.0,97,0.00,,CLR,0.00,VWS V14.01,2013-04-06 12:54:00,
2013-04-06 09:00:00,48.4,47.6,30.13,NW,318,0.0,2.0,97,0.00,,CLR,0.00,VWS V14.01,2013-04-06 13:00:00,
2013-04-06 09:08:00,49.2,48.4,30.13,NW,319,0.0,2.0,97,0.00,,CLR,0.00,VWS V14.01,2013-04-06 13:08:00,
2013-04-06 09:15:00,49.8,48.7,30.14,NW,318,0.0,2.0,96,0.00,,CLR,0.00,VWS V14.01,2013-04-06 13:15:00,
2013-04-06 09:22:00,50.5,48.0,30.13,NNW,344,0.0,2.0,91,0.00,,CLR,0.00,VWS V14.01,2013-04-06 13:22:00,
2013-04-06 09:30:00,51.5,47.5,30.13,NNE,33,1.0,2.0,86,0.00,,CLR,0.00,VWS V14.01,2013-04-06 13:30:00,
2013-04-06 09:36:00,52.7,47.7,30.13,North,355,0.0,4.0,83,0.00,,CLR,0.00,VWS V14.01,2013-04-06 13:36:00,
2013-04-06 09:45:00,54.3,47.6,30.14,North,5,0.0,4.0,78,0.00,,CLR,0.00,VWS V14.01,2013-04-06 13:45:00,
2013-04-06 09:51:00,55.4,47.6,30.14,NW,321,0.0,5.0,75,0.00,,CLR,0.00,VWS V14.01,2013-04-06 13:51:00,
2013-04-06 10:00:00,57.1,47.8,30.14,NNE,24,0.0,5.0,71,0.00,,CLR,0.00,VWS V14.01,2013-04-06 14:00:00,
2013-04-06 10:10:00,58.3,47.0,30.14,NNE,20,0.0,4.0,66,0.00,,CLR,0.00,VWS V14.01,2013-04-06 14:10:00,
2013-04-06 10:15:00,59.0,46.8,30.14,NNW,333,0.0,4.0,64,0.00,,CLR,0.00,VWS V14.01,2013-04-06 14:15:00,
2013-04-06 10:24:00,59.8,46.3,30.14,NNE,28,0.0,4.0,61,0.00,,CLR,0.00,VWS V14.01,2013-04-06 14:24:00,
2013-04-06 10:30:00,60.5,46.1,30.14,ENE,75,0.0,4.0,59,0.00,,CLR,0.00,VWS V14.01,2013-04-06 14:30:00,
2013-04-06 10:38:00,61.6,47.6,30.14,ENE,75,0.0,1.0,60,0.00,,CLR,0.00,VWS V14.01,2013-04-06 14:38:00,
2013-04-06 10:45:00,62.5,46.1,30.14,SSE,153,0.0,5.0,55,0.00,,CLR,0.00,VWS V14.01,2013-04-06 14:45:00,
2013-04-06 10:52:00,62.9,47.0,30.15,North,355,0.0,3.0,56,0.00,,CLR,0.00,VWS V14.01,2013-04-06 14:52:00,
2013-04-06 11:00:00,63.1,45.7,30.15,SE,145,0.0,4.0,53,0.00,,CLR,0.00,VWS V14.01,2013-04-06 15:00:00,
2013-04-06 11:11:00,63.5,46.1,30.15,NW,313,1.0,4.0,53,0.00,,CLR,0.00,VWS V14.01,2013-04-06 15:11:00,
2013-04-06 11:15:00,64.0,47.0,30.15,NW,313,0.0,4.0,54,0.00,,CLR,0.00,VWS V14.01,2013-04-06 15:15:00,
2013-04-06 11:20:00,64.6,46.6,30.15,NNE,25,0.0,4.0,52,0.00,,CLR,0.00,VWS V14.01,2013-04-06 15:20:00,
2013-04-06 11:30:00,65.2,47.2,30.15,North,355,0.0,4.0,52,0.00,,CLR,0.00,VWS V14.01,2013-04-06 15:30:00,
2013-04-06 11:39:00,65.9,47.3,30.15,NW,318,0.0,4.0,51,0.00,,CLR,0.00,VWS V14.01,2013-04-06 15:39:00,
2013-04-06 11:45:00,66.3,47.7,30.15,NW,318,0.0,4.0,51,0.00,,CLR,0.00,VWS V14.01,2013-04-06 15:45:00,
2013-04-06 11:54:00,67.0,46.7,30.15,NW,321,0.0,2.0,48,0.00,,CLR,0.00,VWS V14.01,2013-04-06 15:54:00,
2013-04-06 12:00:00,67.3,45.8,30.15,NW,321,0.0,2.0,46,0.00,,CLR,0.00,VWS V14.01,2013-04-06 16:00:00,
2013-04-06 12:08:00,67.7,45.6,30.15,NW,319,0.0,4.0,45,0.00,,CLR,0.00,VWS V14.01,2013-04-06 16:08:00,
2013-04-06 12:15:00,67.9,45.2,30.15,NE,34,0.0,4.0,44,0.00,,CLR,0.00,VWS V14.01,2013-04-06 16:15:00,
2013-04-06 12:22:00,68.0,47.0,30.15,ENE,68,0.0,2.0,47,0.00,,CLR,0.00,VWS V14.01,2013-04-06 16:22:00,
2013-04-06 12:30:00,68.3,45.6,30.15,SW,223,0.0,4.0,44,0.00,,CLR,0.00,VWS V14.01,2013-04-06 16:30:00,
2013-04-06 12:36:00,68.3,46.2,30.15,WNW,299,0.0,4.0,45,0.00,,CLR,0.00,VWS V14.01,2013-04-06 16:36:00,
2013-04-06 12:45:00,68.3,45.6,30.15,East,90,0.0,1.0,44,0.00,,CLR,0.00,VWS V14.01,2013-04-06 16:45:00,
2013-04-06 12:54:00,68.7,44.1,30.15,NNW,347,1.0,4.0,41,0.00,,CLR,0.00,VWS V14.01,2013-04-06 16:54:00,
2013-04-06 13:00:00,68.9,43.6,30.15,NNW,338,0.0,4.0,40,0.00,,CLR,0.00,VWS V14.01,2013-04-06 17:00:00,
2013-04-06 13:09:00,69.0,45.0,30.15,NE,56,2.0,3.0,42,0.00,,CLR,0.00,VWS V14.01,2013-04-06 17:09:00,
2013-04-06 13:15:00,69.2,43.9,30.15,WSW,244,0.0,3.0,40,0.00,,CLR,0.00,VWS V14.01,2013-04-06 17:15:00,
2013-04-06 13:23:00,69.7,45.0,30.15,WSW,243,0.0,1.0,41,0.00,,CLR,0.00,VWS V14.01,2013-04-06 17:23:00,
2013-04-06 13:30:00,70.2,44.8,30.15,SE,141,0.0,2.0,40,0.00,,CLR,0.00,VWS V14.01,2013-04-06 17:30:00,
2013-04-06 13:37:00,70.0,43.9,30.15,ENE,68,0.0,4.0,39,0.00,,CLR,0.00,VWS V14.01,2013-04-06 17:37:00,
2013-04-06 13:45:00,70.4,44.3,30.15,ESE,107,1.0,4.0,39,0.00,,CLR,0.00,VWS V14.01,2013-04-06 17:45:00,
2013-04-06 13:51:00,70.9,44.7,30.15,ESE,107,0.0,3.0,39,0.00,,CLR,0.00,VWS V14.01,2013-04-06 17:51:00,
2013-04-06 14:00:00,71.5,43.9,30.14,SE,140,0.0,4.0,37,0.00,,CLR,0.00,VWS V14.01,2013-04-06 18:00:00,
2013-04-06 14:05:00,71.5,45.3,30.14,ESE,113,0.0,3.0,39,0.00,,CLR,0.00,VWS V14.01,2013-04-06 18:05:00,
2013-04-06 14:15:00,71.3,43.0,30.14,East,99,0.0,5.0,36,0.00,,CLR,0.00,VWS V14.01,2013-04-06 18:15:00,
2013-04-06 14:24:00,72.0,44.3,30.14,East,100,0.0,1.0,37,0.00,,CLR,0.00,VWS V14.01,2013-04-06 18:24:00,
2013-04-06 14:30:00,72.4,44.0,30.14,East,101,0.0,2.0,36,0.00,,CLR,0.00,VWS V14.01,2013-04-06 18:30:00,
2013-04-06 14:38:00,72.4,44.0,30.13,East,101,0.0,1.0,36,0.00,,CLR,0.00,VWS V14.01,2013-04-06 18:38:00,
2013-04-06 14:45:00,72.3,42.4,30.13,ESE,114,2.0,3.0,34,0.00,,CLR,0.00,VWS V14.01,2013-04-06 18:45:00,
2013-04-06 14:52:00,71.8,43.4,30.12,East,92,0.0,5.0,36,0.00,,CLR,0.00,VWS V14.01,2013-04-06 18:52:00,
2013-04-06 15:00:00,71.8,43.4,30.12,East,92,2.0,5.0,36,0.00,,CLR,0.00,VWS V14.01,2013-04-06 19:00:00,
2013-04-06 15:06:00,71.7,44.1,30.12,East,91,0.0,3.0,37,0.00,,CLR,0.00,VWS V14.01,2013-04-06 19:06:00,
2013-04-06 15:15:00,72.5,44.8,30.12,ESE,107,0.0,3.0,37,0.00,,CLR,0.00,VWS V14.01,2013-04-06 19:15:00,
2013-04-06 15:21:00,72.5,43.3,30.12,East,95,0.0,2.0,35,0.00,,CLR,0.00,VWS V14.01,2013-04-06 19:21:00,
2013-04-06 15:30:00,72.3,43.1,30.12,East,94,1.0,4.0,35,0.00,,CLR,0.00,VWS V14.01,2013-04-06 19:30:00,
2013-04-06 15:39:00,72.5,45.5,30.11,East,96,0.0,3.0,38,0.00,,CLR,0.00,VWS V14.01,2013-04-06 19:39:00,
2013-04-06 15:45:00,72.8,44.3,30.11,East,95,0.0,3.0,36,0.00,,CLR,0.00,VWS V14.01,2013-04-06 19:45:00,
2013-04-06 16:00:00,72.9,43.7,30.10,East,96,1.0,4.0,35,0.00,,CLR,0.00,VWS V14.01,2013-04-06 20:00:00,
2013-04-06 16:08:00,73.0,44.5,30.10,East,98,0.0,2.0,36,0.00,,CLR,0.00,VWS V14.01,2013-04-06 20:08:00,
2013-04-06 16:15:00,73.1,44.6,30.10,East,98,0.0,2.0,36,0.00,,CLR,0.00,VWS V14.01,2013-04-06 20:15:00,
2013-04-06 16:22:00,73.3,44.0,30.09,East,88,4.0,4.0,35,0.00,,CLR,0.00,VWS V14.01,2013-04-06 20:22:00,
2013-04-06 16:30:00,73.2,45.4,30.09,ESE,106,1.0,4.0,37,0.00,,CLR,0.00,VWS V14.01,2013-04-06 20:30:00,
2013-04-06 16:41:00,73.3,44.0,30.10,ESE,112,0.0,3.0,35,0.00,,CLR,0.00,VWS V14.01,2013-04-06 20:41:00,
2013-04-06 16:45:00,73.4,45.6,30.10,ESE,112,1.0,3.0,37,0.00,,CLR,0.00,VWS V14.01,2013-04-06 20:45:00,
2013-04-06 16:50:00,73.4,44.1,30.09,ESE,113,0.0,1.0,35,0.00,,CLR,0.00,VWS V14.01,2013-04-06 20:50:00,
2013-04-06 17:00:00,72.5,44.8,30.09,ESE,119,0.0,2.0,37,0.00,,CLR,0.00,VWS V14.01,2013-04-06 21:00:00,
2013-04-06 17:09:00,72.6,44.1,30.10,ESE,119,0.0,1.0,36,0.00,,CLR,0.00,VWS V14.01,2013-04-06 21:09:00,
2013-04-06 17:15:00,72.3,45.3,30.10,ESE,119,0.0,1.0,38,0.00,,CLR,0.00,VWS V14.01,2013-04-06 21:15:00,
2013-04-06 17:23:00,71.7,43.3,30.10,East,86,0.0,4.0,36,0.00,,CLR,0.00,VWS V14.01,2013-04-06 21:23:00,
2013-04-06 17:30:00,71.3,45.1,30.10,East,86,0.0,4.0,39,0.00,,SCT070,0.00,VWS V14.01,2013-04-06 21:30:00,
2013-04-06 17:32:00,71.2,43.6,30.10,East,86,0.0,2.0,37,0.00,,CLR,0.00,VWS V14.01,2013-04-06 21:32:00,
2013-04-06 17:42:00,70.9,46.7,30.10,East,86,0.0,2.0,42,0.00,,CLR,0.00,VWS V14.01,2013-04-06 21:42:00,
2013-04-06 17:45:00,70.8,44.6,30.10,East,86,0.0,2.0,39,0.00,,CLR,0.00,VWS V14.01,2013-04-06 21:45:00,
2013-04-06 17:51:00,70.7,43.9,30.10,East,86,0.0,0.0,38,0.00,,CLR,0.00,VWS V14.01,2013-04-06 21:51:00,
2013-04-06 18:00:00,70.3,44.9,30.10,East,86,0.0,0.0,40,0.00,,CLR,0.00,VWS V14.01,2013-04-06 22:00:00,
2013-04-06 18:06:00,70.2,45.4,30.10,East,86,0.0,0.0,41,0.00,,CLR,0.00,VWS V14.01,2013-04-06 22:06:00,
2013-04-06 18:15:00,69.8,46.9,30.10,East,86,0.0,1.0,44,0.00,,CLR,0.00,VWS V14.01,2013-04-06 22:15:00,
2013-04-06 18:24:00,69.3,46.5,30.11,East,86,0.0,0.0,44,0.00,,CLR,0.00,VWS V14.01,2013-04-06 22:24:00,
2013-04-06 18:30:00,68.9,46.1,30.10,East,86,0.0,0.0,44,0.00,,CLR,0.00,VWS V14.01,2013-04-06 22:30:00,
2013-04-06 18:45:00,68.1,46.6,30.11,East,86,0.0,2.0,46,0.00,,CLR,0.00,VWS V14.01,2013-04-06 22:45:00,
2013-04-06 18:53:00,67.5,46.6,30.11,East,86,0.0,0.0,47,0.00,,CLR,0.00,VWS V14.01,2013-04-06 22:53:00,
2013-04-06 19:00:00,66.8,47.0,30.11,East,86,0.0,0.0,49,0.00,,CLR,0.00,VWS V14.01,2013-04-06 23:00:00,
2013-04-06 19:07:00,66.2,47.6,30.11,East,86,0.0,0.0,51,0.00,,CLR,0.00,VWS V14.01,2013-04-06 23:07:00,
2013-04-06 19:15:00,65.3,49.2,30.11,East,86,0.0,0.0,56,0.00,,CLR,0.00,VWS V14.01,2013-04-06 23:15:00,
2013-04-06 19:21:00,64.7,47.7,30.11,East,86,0.0,0.0,54,0.00,,CLR,0.00,VWS V14.01,2013-04-06 23:21:00,
2013-04-06 19:30:00,64.3,49.2,30.12,East,86,0.0,1.0,58,0.00,,CLR,0.00,VWS V14.01,2013-04-06 23:30:00,
2013-04-06 19:31:00,64.3,49.2,30.12,East,86,0.0,0.0,58,0.00,,CLR,0.00,VWS V14.01,2013-04-06 23:31:00,
2013-04-06 19:40:00,64.2,49.1,30.12,East,86,0.0,1.0,58,0.00,,CLR,0.00,VWS V14.01,2013-04-06 23:40:00,
2013-04-06 19:45:00,64.1,49.0,30.12,East,86,0.0,1.0,58,0.00,,CLR,0.00,VWS V14.01,2013-04-06 23:45:00,
2013-04-06 20:00:00,63.6,48.6,30.13,East,86,0.0,1.0,58,0.00,,CLR,0.00,VWS V14.01,2013-04-07 00:00:00,
2013-04-06 20:08:00,63.3,47.8,30.14,East,86,0.0,1.0,57,0.00,,CLR,0.00,VWS V14.01,2013-04-07 00:08:00,
2013-04-06 20:15:00,63.0,47.5,30.14,East,86,0.0,1.0,57,0.00,,CLR,0.00,VWS V14.01,2013-04-07 00:15:00,
2013-04-06 20:23:00,62.6,48.1,30.15,East,86,0.0,1.0,59,0.00,,CLR,0.00,VWS V14.01,2013-04-07 00:23:00,
2013-04-06 20:30:00,62.1,47.6,30.15,East,86,0.0,1.0,59,0.00,,CLR,0.00,VWS V14.01,2013-04-07 00:30:00,
2013-04-06 20:37:00,61.8,47.3,30.15,East,86,0.0,1.0,59,0.00,,CLR,0.00,VWS V14.01,2013-04-07 00:37:00,
2013-04-06 20:45:00,61.3,47.3,30.16,East,86,0.0,1.0,60,0.00,,CLR,0.00,VWS V14.01,2013-04-07 00:45:00,
2013-04-06 20:56:00,60.7,46.8,30.16,East,86,0.0,0.0,60,0.00,,CLR,0.00,VWS V14.01,2013-04-07 00:56:00,
2013-04-06 21:00:00,60.4,46.9,30.16,East,86,0.0,0.0,61,0.00,,CLR,0.00,VWS V14.01,2013-04-07 01:00:00,
2013-04-06 21:05:00,60.1,46.6,30.17,East,86,0.0,0.0,61,0.00,,CLR,0.00,VWS V14.01,2013-04-07 01:05:00,
2013-04-06 21:15:00,59.6,46.2,30.17,East,86,0.0,1.0,61,0.00,,CLR,0.00,VWS V14.01,2013-04-07 01:15:00,
2013-04-06 21:24:00,59.0,45.6,30.18,East,86,0.0,0.0,61,0.00,,CLR,0.00,VWS V14.01,2013-04-07 01:24:00,
2013-04-06 21:30:00,59.0,46.0,30.18,East,86,0.0,0.0,62,0.00,,CLR,0.00,VWS V14.01,2013-04-07 01:30:00,
2013-04-06 21:38:00,58.2,45.7,30.18,East,86,0.0,0.0,63,0.00,,CLR,0.00,VWS V14.01,2013-04-07 01:38:00,
2013-04-06 21:45:00,58.0,45.1,30.18,East,86,0.0,0.0,62,0.00,,CLR,0.00,VWS V14.01,2013-04-07 01:45:00,
2013-04-06 21:53:00,57.7,44.8,30.18,East,86,0.0,1.0,62,0.00,,CLR,0.00,VWS V14.01,2013-04-07 01:53:00,
2013-04-06 22:00:00,57.4,44.9,30.19,East,86,0.0,1.0,63,0.00,,CLR,0.00,VWS V14.01,2013-04-07 02:00:00,
2013-04-06 22:07:00,57.0,45.0,30.19,East,86,0.0,0.0,64,0.00,,CLR,0.00,VWS V14.01,2013-04-07 02:07:00,
2013-04-06 22:15:00,56.6,44.6,30.19,East,86,0.0,0.0,64,0.00,,CLR,0.00,VWS V14.01,2013-04-07 02:15:00,
2013-04-06 22:21:00,56.4,44.8,30.19,East,86,0.0,1.0,65,0.00,,CLR,0.00,VWS V14.01,2013-04-07 02:21:00,
2013-04-06 22:30:00,56.2,45.0,30.19,East,86,0.0,1.0,66,0.00,,CLR,0.00,VWS V14.01,2013-04-07 02:30:00,
2013-04-06 22:39:00,55.8,45.4,30.20,East,86,0.0,0.0,68,0.00,,CLR,0.00,VWS V14.01,2013-04-07 02:39:00,
2013-04-06 22:45:00,55.6,45.6,30.20,East,86,0.0,0.0,69,0.00,,CLR,0.00,VWS V14.01,2013-04-07 02:45:00,
2013-04-06 23:00:00,55.3,46.4,30.20,East,86,0.0,0.0,72,0.00,,CLR,0.00,VWS V14.01,2013-04-07 03:00:00,
2013-04-06 23:08:00,55.1,46.6,30.20,East,86,0.0,0.0,73,0.00,,CLR,0.00,VWS V14.01,2013-04-07 03:08:00,
2013-04-06 23:15:00,54.9,46.8,30.20,East,86,0.0,0.0,74,0.00,,CLR,0.00,VWS V14.01,2013-04-07 03:15:00,
2013-04-06 23:22:00,54.8,47.0,30.20,East,86,0.0,0.0,75,0.00,,CLR,0.00,VWS V14.01,2013-04-07 03:22:00,
2013-04-06 23:30:00,54.5,47.1,30.20,East,86,0.0,0.0,76,0.00,,CLR,0.00,VWS V14.01,2013-04-07 03:30:00,
2013-04-06 23:37:00,54.1,47.1,30.20,East,86,0.0,0.0,77,0.00,,CLR,0.00,VWS V14.01,2013-04-07 03:37:00,
2013-04-06 23:45:00,53.7,47.0,30.19,East,86,0.0,0.0,78,0.00,,CLR,0.00,VWS V14.01,2013-04-07 03:45:00,
2013-04-06 23:51:00,53.5,47.2,30.20,East,86,0.0,0.0,79,0.00,,CLR,0.00,VWS V14.01,2013-04-07 03:51:00,